createdAt,value
2019-06-20T00:00:34.666Z,9.20
2019-06-20T00:03:04.377Z,8.50
2019-06-20T00:05:33.643Z,8.17
2019-06-20T00:08:02.979Z,9.03
2019-06-20T00:10:32.233Z,8.60
2019-06-20T00:13:01.436Z,9.00
2019-06-20T00:15:30.634Z,7.50
2019-06-20T00:17:59.816Z,8.63
2019-06-20T00:20:28.950Z,8.50
2019-06-20T00:22:58.157Z,8.47
2019-06-20T00:25:27.313Z,7.93
2019-06-20T00:27:56.651Z,8.30
2019-06-20T00:30:25.946Z,9.00
2019-06-20T00:32:55.185Z,8.30
2019-06-20T00:35:24.365Z,9.23
2019-06-20T00:37:53.663Z,8.40
2019-06-20T00:40:22.961Z,8.70
2019-06-20T00:42:52.322Z,8.47
2019-06-20T00:45:23.519Z,8.60
2019-06-20T00:47:52.717Z,8.00
2019-06-20T00:50:21.935Z,7.23
2019-06-20T00:52:51.073Z,7.87
2019-06-20T00:55:20.352Z,7.93
2019-06-20T00:57:49.592Z,6.60
2019-06-20T01:00:20.668Z,7.03
2019-06-20T01:02:50.014Z,7.80
2019-06-20T01:05:19.206Z,6.83
2019-06-20T01:07:48.429Z,7.60
2019-06-20T01:10:18.551Z,7.90
2019-06-20T01:12:47.782Z,8.53
2019-06-20T01:15:17.142Z,7.50
2019-06-20T01:17:46.259Z,7.20
2019-06-20T01:20:16.756Z,8.33
2019-06-20T01:22:45.976Z,7.60
2019-06-20T01:25:15.671Z,7.53
2019-06-20T01:27:44.979Z,8.27
2019-06-20T01:30:14.593Z,7.90
2019-06-20T01:32:43.750Z,7.37
2019-06-20T01:35:13.270Z,8.90
2019-06-20T01:37:42.410Z,9.00
2019-06-20T01:40:13.249Z,9.57
2019-06-20T01:42:42.578Z,9.90
2019-06-20T01:45:12.140Z,10.00
2019-06-20T01:47:41.408Z,10.23
2019-06-20T01:50:10.928Z,9.90
2019-06-20T01:52:39.937Z,10.20
2019-06-20T01:55:09.115Z,11.50
2019-06-20T01:57:38.433Z,10.40
2019-06-20T02:00:09.518Z,11.30
2019-06-20T02:02:38.790Z,11.17
2019-06-20T02:05:08.148Z,12.80
2019-06-20T02:07:37.393Z,11.97
2019-06-20T02:10:07.166Z,12.30
2019-06-20T02:12:36.345Z,12.67
2019-06-20T02:15:05.713Z,12.70
2019-06-20T02:17:35.142Z,14.23
2019-06-20T02:20:05.319Z,15.83
2019-06-20T02:22:34.598Z,14.53
2019-06-20T02:25:04.315Z,14.30
2019-06-20T02:27:33.380Z,16.60
2019-06-20T02:30:02.639Z,13.60
2019-06-20T02:32:31.871Z,14.73
2019-06-20T02:35:00.996Z,15.87
2019-06-20T02:37:30.268Z,15.17
2019-06-20T02:39:59.391Z,16.63
2019-06-20T02:42:28.654Z,16.93
2019-06-20T02:44:57.982Z,17.90
2019-06-20T02:47:27.321Z,18.27
2019-06-20T02:49:56.501Z,17.40
2019-06-20T02:52:25.800Z,16.87
2019-06-20T02:54:55.077Z,19.83
2019-06-20T02:57:24.297Z,19.70
2019-06-20T02:59:53.627Z,18.67
2019-06-20T03:02:22.715Z,20.90
2019-06-20T03:04:52.952Z,21.13
2019-06-20T03:07:22.658Z,23.20
2019-06-20T03:09:52.878Z,23.47
2019-06-20T03:12:22.998Z,24.13
2019-06-20T03:14:52.612Z,24.53
2019-06-20T03:17:24.057Z,24.00
2019-06-20T03:19:53.971Z,24.97
2019-06-20T03:22:23.784Z,25.37
2019-06-20T03:24:53.698Z,26.77
2019-06-20T03:27:23.610Z,24.60
2019-06-20T03:29:53.527Z,26.77
2019-06-20T03:32:23.275Z,27.17
2019-06-20T03:34:53.154Z,29.03
2019-06-20T03:37:22.969Z,29.20
2019-06-20T03:39:52.563Z,29.97
2019-06-20T03:42:22.375Z,29.03
2019-06-20T03:45:01.760Z,29.03
2019-06-20T03:47:23.793Z,32.20
2019-06-20T03:49:53.776Z,29.50
2019-06-20T03:52:23.996Z,34.90
2019-06-20T03:54:53.805Z,33.13
2019-06-20T03:57:23.604Z,33.60
2019-06-20T03:59:53.228Z,33.70
2019-06-20T04:02:22.942Z,35.13
2019-06-20T04:04:53.201Z,33.53
2019-06-20T04:07:22.633Z,34.60
2019-06-20T04:09:52.445Z,34.40
2019-06-20T04:12:22.188Z,35.37
2019-06-20T04:14:51.697Z,35.20
2019-06-20T04:17:20.993Z,36.00
2019-06-20T04:19:50.563Z,37.47
2019-06-20T04:22:20.375Z,36.90
2019-06-20T04:24:49.984Z,37.17
2019-06-20T04:27:19.528Z,34.63
2019-06-20T04:29:49.094Z,35.70
2019-06-20T04:32:18.849Z,36.27
2019-06-20T04:34:48.656Z,36.43
2019-06-20T04:37:18.368Z,38.77
2019-06-20T04:39:47.948Z,39.20
2019-06-20T04:42:18.746Z,36.23
2019-06-20T04:44:51.391Z,39.63
2019-06-20T04:47:21.134Z,39.83
2019-06-20T04:49:50.739Z,39.10
2019-06-20T04:52:20.073Z,38.03
2019-06-20T04:54:49.617Z,40.00
2019-06-20T04:57:19.325Z,39.50
2019-06-20T04:59:51.496Z,38.17
2019-06-20T05:02:34.348Z,38.57
2019-06-20T05:05:06.376Z,39.60
2019-06-20T05:07:35.819Z,36.73
2019-06-20T05:10:07.142Z,40.87
2019-06-20T05:12:36.632Z,39.57
2019-06-20T05:15:07.470Z,38.43
2019-06-20T05:17:39.326Z,39.70
2019-06-20T05:20:09.222Z,40.40
2019-06-20T05:22:39.262Z,37.37
2019-06-20T05:25:09.490Z,40.80
2019-06-20T05:27:39.195Z,39.33
2019-06-20T05:30:10.596Z,40.57
2019-06-20T05:32:39.642Z,43.33
2019-06-20T05:35:09.817Z,42.93
2019-06-20T05:37:38.767Z,43.07
2019-06-20T05:40:08.066Z,42.57
2019-06-20T05:42:37.246Z,43.90
2019-06-20T05:45:06.807Z,44.10
2019-06-20T05:47:35.924Z,44.53
2019-06-20T05:50:05.737Z,42.37
2019-06-20T05:52:35.074Z,44.20
2019-06-20T05:55:04.482Z,45.43
2019-06-20T05:57:33.504Z,43.17
2019-06-20T06:00:02.455Z,42.80
2019-06-20T06:02:31.572Z,44.83
2019-06-20T06:05:01.699Z,43.50
2019-06-20T06:07:30.888Z,44.33
2019-06-20T06:10:03.892Z,44.90
2019-06-20T06:12:31.361Z,47.60
2019-06-20T06:15:01.106Z,46.47
2019-06-20T06:17:30.583Z,46.87
2019-06-20T06:19:59.568Z,47.37
2019-06-20T06:22:28.479Z,47.60
2019-06-20T06:24:57.545Z,49.70
2019-06-20T06:27:26.559Z,47.63
2019-06-20T06:29:55.419Z,46.47
2019-06-20T06:32:39.203Z,48.33
2019-06-20T06:34:55.040Z,46.90
2019-06-20T06:37:23.954Z,45.60
2019-06-20T06:39:53.330Z,48.40
2019-06-20T06:42:22.244Z,45.73
2019-06-20T06:44:51.217Z,46.73
2019-06-20T06:47:20.168Z,45.03
2019-06-20T06:49:49.060Z,44.60
2019-06-20T06:52:18.024Z,49.90
2019-06-20T06:54:46.988Z,42.87
2019-06-20T06:57:16.004Z,44.10
2019-06-20T06:59:45.041Z,44.03
2019-06-20T07:02:14.139Z,43.53
2019-06-20T07:04:43.138Z,45.23
2019-06-20T07:07:12.197Z,41.57
2019-06-20T07:09:41.328Z,41.03
2019-06-20T07:12:10.330Z,40.90
2019-06-20T07:14:42.711Z,40.67
2019-06-20T07:17:10.481Z,38.80
2019-06-20T07:19:39.413Z,37.97
2019-06-20T07:22:08.667Z,40.23
2019-06-20T07:24:37.760Z,39.13
2019-06-20T07:27:06.820Z,38.03
2019-06-20T07:29:36.000Z,39.00
2019-06-20T07:32:05.076Z,35.60
2019-06-20T07:34:34.079Z,37.70
2019-06-20T07:37:03.150Z,39.03
2019-06-20T07:39:32.214Z,38.20
2019-06-20T07:42:01.548Z,37.07
2019-06-20T07:44:30.751Z,34.03
2019-06-20T07:47:13.699Z,31.93
2019-06-20T07:49:30.551Z,31.83
2019-06-20T07:51:59.590Z,28.87
2019-06-20T07:54:28.533Z,26.63
2019-06-20T07:56:57.615Z,27.80
2019-06-20T07:59:26.923Z,24.60
2019-06-20T08:01:56.014Z,25.40
2019-06-20T08:04:25.232Z,20.73
2019-06-20T08:06:54.680Z,22.47
2019-06-20T08:09:24.041Z,19.07
2019-06-20T08:11:53.655Z,19.53
2019-06-20T08:14:23.036Z,19.50
2019-06-20T08:16:52.285Z,19.70
2019-06-20T08:19:21.404Z,20.00
2019-06-20T08:21:50.479Z,20.20
2019-06-20T08:24:19.593Z,19.43
2019-06-20T08:26:48.893Z,18.30
2019-06-20T08:29:21.012Z,17.47
2019-06-20T08:31:49.213Z,19.33
2019-06-20T08:34:18.621Z,17.60
2019-06-20T08:36:48.073Z,17.87
2019-06-20T08:39:17.321Z,17.97
2019-06-20T08:41:46.590Z,15.93
2019-06-20T08:44:15.778Z,16.10
2019-06-20T08:46:44.861Z,15.37
2019-06-20T08:49:13.976Z,15.80
2019-06-20T08:51:43.196Z,16.03
2019-06-20T08:54:12.465Z,15.83
2019-06-20T08:56:41.676Z,15.70
2019-06-20T08:59:23.501Z,15.77
2019-06-20T09:01:41.811Z,13.93
2019-06-20T09:04:11.001Z,13.47
2019-06-20T09:06:40.240Z,13.40
2019-06-20T09:09:09.651Z,14.00
2019-06-20T09:11:38.953Z,13.43
2019-06-20T09:14:08.415Z,14.90
2019-06-20T09:16:37.773Z,15.70
2019-06-20T09:19:07.100Z,13.70
2019-06-20T09:21:36.356Z,13.40
2019-06-20T09:24:05.763Z,15.87
2019-06-20T09:26:35.148Z,14.73
2019-06-20T09:29:04.256Z,15.30
2019-06-20T09:31:33.377Z,14.47
2019-06-20T09:34:05.327Z,14.97
2019-06-20T09:36:33.556Z,16.30
2019-06-20T09:39:03.809Z,14.53
2019-06-20T09:41:33.187Z,16.10
2019-06-20T09:44:03.175Z,16.33
2019-06-20T09:46:32.459Z,12.90
2019-06-20T09:49:02.669Z,15.47
2019-06-20T09:51:32.017Z,13.87
2019-06-20T09:54:01.160Z,13.83
2019-06-20T09:56:30.745Z,11.20
2019-06-20T09:58:59.810Z,11.60
2019-06-20T10:01:28.935Z,11.13
2019-06-20T10:03:57.913Z,11.50
2019-06-20T10:06:26.983Z,11.23
2019-06-20T10:08:56.528Z,9.27
2019-06-20T10:11:25.664Z,8.03
2019-06-20T10:13:56.033Z,9.80
2019-06-20T10:16:25.259Z,9.37
2019-06-20T10:18:54.481Z,9.80
2019-06-20T10:21:23.580Z,8.37
2019-06-20T10:23:53.878Z,10.10
2019-06-20T10:26:23.226Z,9.43
2019-06-20T10:28:53.111Z,13.40
2019-06-20T10:31:22.136Z,12.10
2019-06-20T10:33:52.477Z,10.50
2019-06-20T10:36:21.648Z,11.00
2019-06-20T10:38:50.606Z,10.90
2019-06-20T10:41:19.636Z,9.30
2019-06-20T10:43:49.562Z,9.70
2019-06-20T10:46:18.784Z,10.33
2019-06-20T10:48:48.037Z,9.87
2019-06-20T10:51:36.510Z,8.73
2019-06-20T10:54:05.874Z,8.93
2019-06-20T10:56:35.429Z,9.60
2019-06-20T10:59:04.797Z,8.33
2019-06-20T11:01:33.889Z,8.70
2019-06-20T11:04:03.026Z,8.63
2019-06-20T11:06:32.156Z,7.83
2019-06-20T11:09:01.199Z,9.13
2019-06-20T11:11:30.458Z,8.00
2019-06-20T11:13:59.420Z,8.40
2019-06-20T11:16:28.557Z,7.50
2019-06-20T11:18:57.857Z,7.77
2019-06-20T11:21:27.050Z,6.43
2019-06-20T11:23:56.104Z,7.80
2019-06-20T11:26:25.191Z,7.63
2019-06-20T11:28:54.246Z,8.80
2019-06-20T11:31:23.298Z,6.90
2019-06-20T11:33:52.824Z,8.20
2019-06-20T11:36:21.895Z,8.40
2019-06-20T11:38:51.047Z,7.27
2019-06-20T11:41:20.172Z,8.97
2019-06-20T11:43:49.221Z,8.23
2019-06-20T11:46:18.251Z,7.90
2019-06-20T11:48:47.307Z,10.00
2019-06-20T11:51:16.530Z,8.30
2019-06-20T11:53:45.619Z,8.07
2019-06-20T11:56:14.936Z,7.33
2019-06-20T11:58:43.860Z,9.40
2019-06-20T12:01:12.912Z,8.60
2019-06-20T12:03:42.514Z,8.20
2019-06-20T12:06:11.990Z,7.77
2019-06-20T12:08:42.363Z,8.60
2019-06-20T12:11:11.524Z,7.83
2019-06-20T12:13:40.508Z,7.73
2019-06-20T12:16:09.480Z,9.07
2019-06-20T12:18:39.869Z,7.87
2019-06-20T12:21:09.444Z,8.40
2019-06-20T12:23:39.515Z,8.80
2019-06-20T12:26:09.560Z,8.47
2019-06-20T12:28:39.653Z,9.23
2019-06-20T12:31:18.834Z,8.87
2019-06-20T12:33:40.971Z,8.40
2019-06-20T12:36:10.205Z,8.47
2019-06-20T12:38:39.785Z,9.67
2019-06-20T12:41:10.021Z,8.40
2019-06-20T12:43:40.258Z,8.47
2019-06-20T12:46:09.487Z,8.30
2019-06-20T12:48:39.930Z,7.70
2019-06-20T12:51:09.487Z,8.03
2019-06-20T12:53:39.332Z,9.30
2019-06-20T12:56:09.644Z,8.67
2019-06-20T12:58:39.457Z,8.20
2019-06-20T13:01:09.753Z,7.60
2019-06-20T13:03:40.219Z,8.70
2019-06-20T13:06:09.923Z,9.17
2019-06-20T13:08:40.366Z,8.67
2019-06-20T13:11:09.755Z,10.50
2019-06-20T13:13:40.227Z,10.90
2019-06-20T13:16:09.677Z,11.20
2019-06-20T13:18:39.661Z,9.70
2019-06-20T13:21:09.263Z,10.80
2019-06-20T13:23:41.284Z,12.53
2019-06-20T13:26:09.856Z,12.70
2019-06-20T13:28:58.877Z,11.40
2019-06-20T13:31:10.000Z,12.10
2019-06-20T13:33:39.604Z,9.90
2019-06-20T13:36:10.112Z,9.87
2019-06-20T13:38:39.905Z,11.77
2019-06-20T13:41:10.018Z,11.30
2019-06-20T13:43:39.216Z,12.07
2019-06-20T13:46:08.507Z,11.73
2019-06-20T13:48:38.944Z,11.77
2019-06-20T13:51:08.729Z,11.73
2019-06-20T13:53:39.239Z,10.43
2019-06-20T13:56:08.559Z,11.20
2019-06-20T13:58:37.649Z,10.37
2019-06-20T14:01:06.782Z,10.63
2019-06-20T14:03:36.788Z,9.30
2019-06-20T14:06:05.963Z,10.10
2019-06-20T14:08:35.008Z,10.73
2019-06-20T14:11:04.666Z,10.00
2019-06-20T14:13:33.843Z,10.43
2019-06-20T14:16:03.200Z,10.13
2019-06-20T14:18:32.379Z,8.53
2019-06-20T14:21:01.783Z,8.80
2019-06-20T14:23:31.016Z,7.80
2019-06-20T14:26:00.027Z,9.27
2019-06-20T14:28:29.114Z,9.00
2019-06-20T14:30:58.358Z,9.80
2019-06-20T14:33:27.327Z,8.00
2019-06-20T14:35:56.524Z,8.87
2019-06-20T14:38:25.629Z,9.37
2019-06-20T14:40:54.727Z,8.50
2019-06-20T14:43:23.756Z,8.10
2019-06-20T14:45:52.669Z,10.83
2019-06-20T14:48:22.723Z,11.67
2019-06-20T14:50:53.313Z,11.07
2019-06-20T14:53:22.678Z,11.37
2019-06-20T14:55:51.834Z,11.60
2019-06-20T14:58:21.032Z,11.77
2019-06-20T15:00:50.042Z,10.23
2019-06-20T15:03:18.994Z,10.30
2019-06-20T15:05:48.353Z,11.80
2019-06-20T15:08:17.612Z,10.87
2019-06-20T15:10:48.398Z,11.57
2019-06-20T15:13:17.985Z,12.13
2019-06-20T15:15:47.905Z,12.07
2019-06-20T15:18:17.916Z,12.90
2019-06-20T15:20:48.322Z,12.10
2019-06-20T15:23:17.780Z,11.50
2019-06-20T15:25:48.761Z,12.20
2019-06-20T15:28:18.217Z,11.90
2019-06-20T15:30:48.888Z,10.93
2019-06-20T15:33:18.098Z,10.70
2019-06-20T15:35:49.228Z,8.63
2019-06-20T15:38:18.552Z,8.93
2019-06-20T15:40:49.372Z,8.33
2019-06-20T15:43:18.455Z,7.20
2019-06-20T15:45:49.907Z,6.17
2019-06-20T15:48:18.426Z,7.00
2019-06-20T15:50:47.449Z,6.60
2019-06-20T15:53:16.606Z,5.53
2019-06-20T15:55:45.750Z,5.40
2019-06-20T15:58:15.220Z,5.00
2019-06-20T16:00:44.311Z,5.43
2019-06-20T16:03:14.677Z,6.37
2019-06-20T16:05:44.023Z,4.87
2019-06-20T16:08:13.027Z,6.37
2019-06-20T16:10:42.193Z,5.43
2019-06-20T16:13:11.659Z,6.60
2019-06-20T16:15:40.829Z,7.10
2019-06-20T16:18:09.899Z,7.27
2019-06-20T16:20:39.047Z,5.60
2019-06-20T16:23:08.201Z,6.97
2019-06-20T16:25:37.324Z,6.93
2019-06-20T16:28:06.414Z,6.27
2019-06-20T16:30:35.475Z,6.50
2019-06-20T16:33:04.816Z,7.60
2019-06-20T16:35:33.874Z,7.03
2019-06-20T16:38:03.472Z,7.97
2019-06-20T16:40:42.164Z,6.00
2019-06-20T16:43:11.499Z,6.40
2019-06-20T16:45:40.800Z,6.67
2019-06-20T16:48:10.030Z,5.97
2019-06-20T16:50:39.248Z,6.67
2019-06-20T16:53:08.402Z,6.07
2019-06-20T16:55:37.470Z,5.27
2019-06-20T16:58:07.040Z,7.10
2019-06-20T17:00:36.246Z,5.90
2019-06-20T17:03:05.743Z,6.40
2019-06-20T17:05:34.846Z,7.87
2019-06-20T17:08:04.053Z,7.27
2019-06-20T17:10:33.131Z,6.90
2019-06-20T17:13:02.269Z,5.33
2019-06-20T17:15:31.758Z,4.57
2019-06-20T17:18:00.992Z,5.23
2019-06-20T17:20:30.161Z,4.23
2019-06-20T17:22:59.219Z,5.53
2019-06-20T17:25:28.558Z,5.97
2019-06-20T17:27:57.779Z,5.80
2019-06-20T17:30:28.369Z,6.10
2019-06-20T17:32:58.106Z,5.83
2019-06-20T17:35:27.658Z,5.93
2019-06-20T17:37:56.857Z,7.87
2019-06-20T17:40:26.184Z,6.80
2019-06-20T17:42:55.391Z,6.30
2019-06-20T17:45:24.944Z,5.67
2019-06-20T17:47:54.222Z,5.07
2019-06-20T17:50:26.024Z,5.43
2019-06-20T17:52:55.163Z,5.30
2019-06-20T17:55:24.163Z,5.80
2019-06-20T17:57:53.294Z,5.80
2019-06-20T18:00:25.830Z,6.80
2019-06-20T18:02:54.920Z,6.93
2019-06-20T18:05:24.525Z,7.40
2019-06-20T18:07:53.693Z,7.47
2019-06-20T18:10:23.387Z,7.20
2019-06-20T18:12:52.907Z,8.37
2019-06-20T18:15:23.381Z,8.17
2019-06-20T18:17:52.485Z,8.53
2019-06-20T18:20:22.076Z,9.07
2019-06-20T18:22:51.081Z,8.10
2019-06-20T18:25:20.611Z,8.83
2019-06-20T18:27:49.688Z,9.43
2019-06-20T18:30:40.743Z,9.20
2019-06-20T18:33:10.379Z,9.73
2019-06-20T18:35:39.676Z,8.27
2019-06-20T18:38:08.900Z,8.70
2019-06-20T18:40:38.171Z,8.60
2019-06-20T18:43:07.504Z,7.60
2019-06-20T18:45:36.763Z,8.20
2019-06-20T18:48:06.050Z,8.27
2019-06-20T18:50:35.167Z,8.17
2019-06-20T18:53:04.253Z,8.70
2019-06-20T18:55:33.553Z,7.83
2019-06-20T18:58:02.753Z,7.30
2019-06-20T19:00:34.843Z,6.70
2019-06-20T19:03:03.997Z,7.23
2019-06-20T19:05:33.826Z,8.20
2019-06-20T19:08:04.048Z,8.23
2019-06-20T19:10:33.883Z,8.10
2019-06-20T19:13:05.006Z,8.27
2019-06-20T19:15:34.999Z,8.27
2019-06-20T19:18:04.941Z,7.50
2019-06-20T19:20:34.740Z,7.97
2019-06-20T19:23:04.497Z,8.73
2019-06-20T19:25:34.069Z,8.80
2019-06-20T19:28:03.778Z,7.77
2019-06-20T19:30:44.445Z,8.53
2019-06-20T19:33:14.135Z,8.13
2019-06-20T19:35:43.986Z,8.87
2019-06-20T19:38:13.683Z,7.90
2019-06-20T19:40:46.362Z,7.43
2019-06-20T19:43:16.377Z,6.70
2019-06-20T19:45:46.707Z,7.97
2019-06-20T19:48:20.001Z,7.80
2019-06-20T19:50:50.114Z,7.97
2019-06-20T19:53:20.339Z,10.60
2019-06-20T19:55:50.556Z,8.50
2019-06-20T19:58:20.163Z,8.07
2019-06-20T20:00:49.460Z,8.17
2019-06-20T20:03:19.004Z,8.10
2019-06-20T20:05:48.397Z,8.20
2019-06-20T20:08:18.060Z,8.90
2019-06-20T20:10:48.081Z,9.37
2019-06-20T20:13:17.616Z,11.47
2019-06-20T20:15:47.434Z,11.80
2019-06-20T20:18:17.373Z,12.47
2019-06-20T20:20:47.748Z,13.67
2019-06-20T20:23:17.707Z,13.20
2019-06-20T20:25:47.147Z,13.40
2019-06-20T20:28:16.464Z,14.03
2019-06-20T20:30:45.807Z,12.40
2019-06-20T20:33:15.162Z,13.93
2019-06-20T20:35:45.280Z,14.70
2019-06-20T20:38:15.214Z,14.30
2019-06-20T20:40:44.987Z,14.20
2019-06-20T20:43:14.273Z,12.77
2019-06-20T20:45:43.764Z,13.77
2019-06-20T20:48:13.090Z,13.00
2019-06-20T20:50:42.341Z,13.23
2019-06-20T20:53:11.590Z,12.07
2019-06-20T20:55:40.825Z,13.20
2019-06-20T20:58:09.882Z,13.10
2019-06-20T21:00:49.887Z,13.53
2019-06-20T21:03:19.002Z,12.60
2019-06-20T21:05:51.786Z,187.40
2019-06-20T21:08:19.277Z,11.93
2019-06-20T21:10:48.517Z,14.43
2019-06-20T21:13:17.875Z,13.97
2019-06-20T21:15:47.112Z,12.80
2019-06-20T21:18:16.676Z,13.70
2019-06-20T21:20:45.987Z,13.80
2019-06-20T21:23:15.248Z,15.17
2019-06-20T21:25:44.466Z,14.90
2019-06-20T21:28:13.624Z,14.83
2019-06-20T21:30:42.663Z,17.30
2019-06-20T21:33:11.800Z,15.93
2019-06-20T21:35:41.730Z,17.23
2019-06-20T21:38:11.118Z,18.00
2019-06-20T21:40:40.394Z,20.27
2019-06-20T21:43:09.699Z,18.87
2019-06-20T21:45:38.933Z,18.73
2019-06-20T21:48:08.230Z,19.10
2019-06-20T21:50:37.808Z,17.43
2019-06-20T21:53:07.147Z,16.87
2019-06-20T21:55:36.406Z,20.20
2019-06-20T21:58:05.564Z,21.67
2019-06-20T22:00:40.662Z,22.00
2019-06-20T22:03:10.949Z,21.43
2019-06-20T22:05:40.480Z,20.80
2019-06-20T22:08:09.956Z,19.60
2019-06-20T22:10:39.159Z,20.97
2019-06-20T22:13:08.355Z,21.07
2019-06-20T22:15:37.835Z,20.73
2019-06-20T22:18:07.838Z,22.80
2019-06-20T22:20:36.928Z,23.40
2019-06-20T22:23:06.469Z,23.60
2019-06-20T22:25:35.647Z,22.13
2019-06-20T22:28:05.338Z,23.43
2019-06-20T22:30:43.241Z,21.47
2019-06-20T22:33:12.781Z,23.03
2019-06-20T22:35:45.675Z,24.00
2019-06-20T22:38:13.578Z,23.80
2019-06-20T22:40:42.897Z,26.43
2019-06-20T22:43:12.099Z,24.07
2019-06-20T22:45:41.315Z,25.23
2019-06-20T22:48:10.471Z,26.60
2019-06-20T22:50:39.689Z,26.00
2019-06-20T22:53:08.786Z,26.80
2019-06-20T22:55:37.967Z,24.40
2019-06-20T22:58:07.265Z,25.70
2019-06-20T23:00:36.586Z,25.80
2019-06-20T23:03:05.823Z,25.20
2019-06-20T23:05:35.039Z,26.63
2019-06-20T23:08:04.292Z,26.80
2019-06-20T23:10:33.641Z,25.57
2019-06-20T23:13:02.887Z,25.07
2019-06-20T23:15:32.163Z,25.60
2019-06-20T23:18:01.431Z,28.13
2019-06-20T23:20:30.560Z,25.47
2019-06-20T23:22:59.806Z,26.40
2019-06-20T23:25:29.009Z,26.30
2019-06-20T23:27:58.325Z,27.40
2019-06-20T23:30:28.095Z,27.63
2019-06-20T23:32:57.347Z,28.30
2019-06-20T23:35:26.556Z,26.23
2019-06-20T23:37:55.781Z,26.43
2019-06-20T23:40:25.401Z,26.37
2019-06-20T23:42:54.778Z,26.93
2019-06-20T23:45:24.104Z,27.83
2019-06-20T23:47:53.359Z,25.83
2019-06-20T23:50:22.670Z,27.60
2019-06-20T23:52:57.468Z,27.40
2019-06-20T23:55:27.207Z,26.30
2019-06-20T23:57:56.486Z,26.23
